createdAt,value
2018-02-17T00:00:53.257Z,47.70
2018-02-17T00:02:55.930Z,67.70
2018-02-17T00:04:58.561Z,139.47
2018-02-17T00:07:01.155Z,100.97
2018-02-17T00:09:03.730Z,154.77
2018-02-17T00:11:06.366Z,67.10
2018-02-17T00:13:08.954Z,48.30
2018-02-17T00:15:11.566Z,45.13
2018-02-17T00:17:14.969Z,72.43
2018-02-17T00:19:18.350Z,41.03
2018-02-17T00:21:21.758Z,65.70
2018-02-17T00:23:25.117Z,98.87
2018-02-17T00:25:27.754Z,223.93
2018-02-17T00:27:30.361Z,114.53
2018-02-17T00:29:32.965Z,141.93
2018-02-17T00:31:35.580Z,150.23
2018-02-17T00:33:38.246Z,59.43
2018-02-17T00:35:40.862Z,36.73
2018-02-17T00:37:43.474Z,47.37
2018-02-17T00:39:46.841Z,81.77
2018-02-17T00:41:49.453Z,89.10
2018-02-17T00:43:52.863Z,65.80
2018-02-17T00:45:55.468Z,67.60
2018-02-17T00:47:58.112Z,122.20
2018-02-17T00:50:00.719Z,145.93
2018-02-17T00:52:03.378Z,181.50
2018-02-17T00:54:05.990Z,191.73
2018-02-17T00:56:08.594Z,222.00
2018-02-17T00:58:11.975Z,120.00
2018-02-17T01:00:15.356Z,200.97
2018-02-17T01:02:17.983Z,52.03
2018-02-17T01:04:20.651Z,51.77
2018-02-17T01:06:24.009Z,126.07
2018-02-17T01:08:26.631Z,67.33
2018-02-17T01:10:29.245Z,63.37
2018-02-17T01:12:31.930Z,52.13
2018-02-17T01:14:34.551Z,141.00
2018-02-17T01:16:37.161Z,88.37
2018-02-17T01:18:39.776Z,59.47
2018-02-17T01:20:43.219Z,63.03
2018-02-17T01:22:45.842Z,61.80
2018-02-17T01:24:48.461Z,145.20
2018-02-17T01:26:51.053Z,60.80
2018-02-17T01:28:53.662Z,57.17
2018-02-17T01:30:56.364Z,91.70
2018-02-17T01:32:59.741Z,58.30
2018-02-17T01:35:02.360Z,51.17
2018-02-17T01:37:04.966Z,50.53
2018-02-17T01:39:07.588Z,71.97
2018-02-17T01:41:10.958Z,71.33
2018-02-17T01:43:14.398Z,55.17
2018-02-17T01:45:17.007Z,90.83
2018-02-17T01:47:19.620Z,74.47
2018-02-17T01:49:23.017Z,93.63
2018-02-17T01:51:25.611Z,94.57
2018-02-17T01:53:28.213Z,62.10
2018-02-17T01:55:30.813Z,55.67
2018-02-17T01:57:33.408Z,58.37
2018-02-17T01:59:36.778Z,42.47
2018-02-17T02:01:39.393Z,75.63
2018-02-17T02:03:42.026Z,50.07
2018-02-17T02:05:44.625Z,58.03
2018-02-17T02:07:47.990Z,49.27
2018-02-17T02:09:50.605Z,51.70
2018-02-17T02:11:53.198Z,48.57
2018-02-17T02:13:55.910Z,56.13
2018-02-17T02:15:58.524Z,62.40
2018-02-17T02:18:01.874Z,49.60
2018-02-17T02:20:04.495Z,77.17
2018-02-17T02:22:07.870Z,54.80
2018-02-17T02:24:11.252Z,70.53
2018-02-17T02:26:13.841Z,51.90
2018-02-17T02:28:17.214Z,58.10
2018-02-17T02:30:19.835Z,78.03
2018-02-17T02:32:22.428Z,62.83
2018-02-17T02:34:25.042Z,66.17
2018-02-17T02:36:27.708Z,87.00
2018-02-17T02:38:30.290Z,68.03
2018-02-17T02:40:32.901Z,52.93
2018-02-17T02:42:35.522Z,57.57
2018-02-17T02:44:38.151Z,60.17
2018-02-17T02:46:40.738Z,50.10
2018-02-17T02:48:43.333Z,52.90
2018-02-17T02:50:45.965Z,57.53
2018-02-17T02:52:48.556Z,75.27
2018-02-17T02:54:51.159Z,63.00
2018-02-17T02:56:53.779Z,50.13
2018-02-17T02:58:57.144Z,54.93
2018-02-17T03:00:59.752Z,69.53
2018-02-17T03:03:03.174Z,68.90
2018-02-17T03:05:05.762Z,56.70
2018-02-17T03:07:09.135Z,58.07
2018-02-17T03:09:11.737Z,54.90
2018-02-17T03:11:14.322Z,53.90
2018-02-17T03:13:16.947Z,54.97
2018-02-17T03:15:19.539Z,50.43
2018-02-17T03:17:22.125Z,51.33
2018-02-17T03:19:24.731Z,51.20
2018-02-17T03:21:27.349Z,60.33
2018-02-17T03:23:30.813Z,54.13
2018-02-17T03:25:33.413Z,53.97
2018-02-17T03:27:36.076Z,41.37
2018-02-17T03:29:39.454Z,35.53
2018-02-17T03:31:42.061Z,37.97
2018-02-17T03:33:44.671Z,35.70
2018-02-17T03:35:47.328Z,40.50
2018-02-17T03:37:49.934Z,37.77
2018-02-17T03:39:52.548Z,42.90
2018-02-17T03:41:55.919Z,39.80
2018-02-17T03:43:58.508Z,44.53
2018-02-17T03:46:01.903Z,39.43
2018-02-17T03:48:05.278Z,39.13
2018-02-17T03:50:08.702Z,45.37
2018-02-17T03:52:11.359Z,41.63
2018-02-17T03:54:14.727Z,43.73
2018-02-17T03:56:17.335Z,46.10
2018-02-17T03:58:20.682Z,47.67
2018-02-17T04:00:23.270Z,46.87
2018-02-17T04:02:25.881Z,45.10
2018-02-17T04:04:28.497Z,47.83
2018-02-17T04:06:31.112Z,42.13
2018-02-17T04:08:34.465Z,39.30
2018-02-17T04:10:37.057Z,47.33
2018-02-17T04:12:39.668Z,46.43
2018-02-17T04:14:42.250Z,50.93
2018-02-17T04:16:44.855Z,51.97
2018-02-17T04:18:47.454Z,47.93
2018-02-17T04:20:50.036Z,51.57
2018-02-17T04:22:53.387Z,46.17
2018-02-17T04:24:56.013Z,54.10
2018-02-17T04:26:59.442Z,54.57
2018-02-17T04:29:02.035Z,50.93
2018-02-17T04:31:04.644Z,57.60
2018-02-17T04:33:08.046Z,50.63
2018-02-17T04:35:11.417Z,61.03
2018-02-17T04:37:14.033Z,55.90
2018-02-17T04:39:16.646Z,60.77
2018-02-17T04:43:57.858Z,55.23
2018-02-17T04:46:16.220Z,63.03
2018-02-17T04:48:25.227Z,53.10
2018-02-17T04:50:37.733Z,50.37
2018-02-17T04:52:55.081Z,50.60
2018-02-17T04:55:04.043Z,50.97
2018-02-17T04:57:12.297Z,50.40
2018-02-17T04:59:21.246Z,45.97
2018-02-17T05:01:38.729Z,49.63
2018-02-17T05:03:44.236Z,50.83
2018-02-17T05:06:02.459Z,53.07
2018-02-17T05:08:07.565Z,49.10
2018-02-17T05:10:10.925Z,52.80
2018-02-17T05:12:13.518Z,55.13
2018-02-17T05:14:26.009Z,55.27
2018-02-17T05:16:49.373Z,53.97
2018-02-17T05:18:54.566Z,65.40
2018-02-17T05:20:57.973Z,58.90
2018-02-17T05:23:01.337Z,57.20
2018-02-17T05:25:06.820Z,61.13
2018-02-17T05:27:14.346Z,61.37
2018-02-17T05:29:17.694Z,63.97
2018-02-17T05:31:20.309Z,61.57
2018-02-17T05:33:27.320Z,71.83
2018-02-17T05:35:33.101Z,66.50
2018-02-17T05:37:35.726Z,60.57
2018-02-17T05:39:40.878Z,67.53
2018-02-17T05:41:43.470Z,70.90
2018-02-17T05:43:46.059Z,70.00
2018-02-17T05:45:55.165Z,55.87
2018-02-17T05:47:59.181Z,54.93
2018-02-17T05:50:01.782Z,55.33
2018-02-17T05:52:04.372Z,51.07
2018-02-17T05:54:07.773Z,48.23
2018-02-17T05:56:10.407Z,42.63
2018-02-17T05:58:13.062Z,44.50
2018-02-17T06:00:15.645Z,50.43
2018-02-17T06:02:18.257Z,55.30
2018-02-17T06:04:21.613Z,51.40
2018-02-17T06:06:24.978Z,48.67
2018-02-17T06:08:27.652Z,59.27
2018-02-17T06:10:30.238Z,47.43
2018-02-17T06:12:32.852Z,50.93
2018-02-17T06:14:35.477Z,45.83
2018-02-17T06:16:38.071Z,44.97
2018-02-17T06:18:40.669Z,51.67
2018-02-17T06:20:43.281Z,47.23
2018-02-17T06:22:45.860Z,51.70
2018-02-17T06:24:48.462Z,49.03
2018-02-17T06:26:51.061Z,50.07
2018-02-17T06:28:54.451Z,51.47
2018-02-17T06:30:57.954Z,51.37
2018-02-17T06:33:00.546Z,49.07
2018-02-17T06:35:03.959Z,53.93
2018-02-17T06:37:06.544Z,49.90
2018-02-17T06:39:09.120Z,49.07
2018-02-17T06:41:11.729Z,53.33
2018-02-17T06:43:14.314Z,55.43
2018-02-17T06:45:16.933Z,50.87
2018-02-17T06:47:19.598Z,51.93
2018-02-17T06:49:22.190Z,47.93
2018-02-17T06:51:24.802Z,48.87
2018-02-17T06:53:27.397Z,59.93
2018-02-17T06:55:29.997Z,55.77
2018-02-17T06:57:32.588Z,57.57
2018-02-17T06:59:35.170Z,52.83
2018-02-17T07:01:37.793Z,54.87
2018-02-17T07:03:41.141Z,52.33
2018-02-17T07:05:43.755Z,65.83
2018-02-17T07:07:46.352Z,61.73
2018-02-17T07:09:49.708Z,66.57
2018-02-17T07:11:52.318Z,64.87
2018-02-17T07:13:54.946Z,59.87
2018-02-17T07:15:57.526Z,56.77
2018-02-17T07:18:00.126Z,55.43
2018-02-17T07:20:03.480Z,53.33
2018-02-17T07:22:06.078Z,50.70
2018-02-17T07:24:08.705Z,46.13
2018-02-17T07:26:11.442Z,47.93
2018-02-17T07:28:18.494Z,48.17
2018-02-17T07:30:22.131Z,53.23
2018-02-17T07:32:38.387Z,53.80
2018-02-17T07:34:41.221Z,48.33
2018-02-17T07:36:43.805Z,48.63
2018-02-17T07:38:46.429Z,47.50
2018-02-17T07:40:49.019Z,46.43
2018-02-17T07:42:55.046Z,47.67
2018-02-17T07:44:57.793Z,45.43
2018-02-17T07:47:00.472Z,49.00
2018-02-17T07:49:03.066Z,46.27
2018-02-17T07:51:05.711Z,47.13
2018-02-17T07:53:08.314Z,44.27
2018-02-17T07:55:10.934Z,43.23
2018-02-17T07:57:14.361Z,43.63
2018-02-17T07:59:16.951Z,47.47
2018-02-17T08:01:19.604Z,51.43
2018-02-17T08:03:26.426Z,42.40
2018-02-17T08:05:29.389Z,43.77
2018-02-17T08:07:39.413Z,44.10
2018-02-17T08:09:42.344Z,46.17
2018-02-17T08:11:45.145Z,49.73
2018-02-17T08:13:48.493Z,44.57
2018-02-17T08:15:51.096Z,56.20
2018-02-17T08:17:54.636Z,41.10
2018-02-17T08:19:57.227Z,49.80
2018-02-17T08:21:59.917Z,46.03
2018-02-17T08:24:02.503Z,56.07
2018-02-17T08:26:05.130Z,87.27
2018-02-17T08:28:10.609Z,76.93
2018-02-17T08:30:13.202Z,55.40
2018-02-17T08:32:15.799Z,42.97
2018-02-17T08:34:18.377Z,41.03
2018-02-17T08:36:20.967Z,41.63
2018-02-17T08:38:23.563Z,39.33
2018-02-17T08:40:26.140Z,43.57
2018-02-17T08:42:29.514Z,40.13
2018-02-17T08:44:32.112Z,42.50
2018-02-17T08:46:34.694Z,47.70
2018-02-17T08:48:41.158Z,40.50
2018-02-17T08:50:50.493Z,37.03
2018-02-17T08:52:59.407Z,36.93
2018-02-17T08:55:02.294Z,35.63
2018-02-17T08:57:04.903Z,37.17
2018-02-17T08:59:08.276Z,36.47
2018-02-17T09:01:10.901Z,38.57
2018-02-17T09:03:13.495Z,38.70
2018-02-17T09:05:16.091Z,39.60
2018-02-17T09:07:18.712Z,36.93
2018-02-17T09:09:21.309Z,40.00
2018-02-17T09:11:23.908Z,36.13
2018-02-17T09:13:26.502Z,34.63
2018-02-17T09:15:29.899Z,37.63
2018-02-17T09:17:33.314Z,35.97
2018-02-17T09:19:35.897Z,35.53
2018-02-17T09:21:38.499Z,36.87
2018-02-17T09:23:41.106Z,35.40
2018-02-17T09:25:43.705Z,38.17
2018-02-17T09:27:46.325Z,36.83
2018-02-17T09:29:49.177Z,37.90
2018-02-17T09:31:51.771Z,35.07
2018-02-17T09:33:54.366Z,37.23
2018-02-17T09:35:56.989Z,40.60
2018-02-17T09:37:59.593Z,33.93
2018-02-17T09:40:02.237Z,33.47
2018-02-17T09:42:04.835Z,34.37
2018-02-17T09:44:07.423Z,35.63
2018-02-17T09:46:10.038Z,35.40
2018-02-17T09:48:12.625Z,35.87
2018-02-17T09:50:16.000Z,36.47
2018-02-17T09:52:18.600Z,38.60
2018-02-17T09:54:21.205Z,34.57
2018-02-17T09:56:23.817Z,38.80
2018-02-17T09:58:26.401Z,37.77
2018-02-17T10:00:29.777Z,35.23
2018-02-17T10:02:32.397Z,33.90
2018-02-17T10:04:35.024Z,35.57
2018-02-17T10:06:37.610Z,35.83
2018-02-17T10:08:40.194Z,35.23
2018-02-17T10:10:43.585Z,32.60
2018-02-17T10:12:46.961Z,33.07
2018-02-17T10:14:49.581Z,34.03
2018-02-17T10:16:52.171Z,35.60
2018-02-17T10:18:54.775Z,35.10
2018-02-17T10:20:57.396Z,34.13
2018-02-17T10:23:00.546Z,35.63
2018-02-17T10:25:03.134Z,31.07
2018-02-17T10:27:06.530Z,33.93
2018-02-17T10:29:10.126Z,35.73
2018-02-17T10:31:13.509Z,33.80
2018-02-17T10:33:16.155Z,29.30
2018-02-17T10:35:18.766Z,35.47
2018-02-17T10:37:22.189Z,39.33
2018-02-17T10:39:24.790Z,36.37
2018-02-17T10:41:28.174Z,32.67
2018-02-17T10:43:30.787Z,31.80
2018-02-17T10:45:33.529Z,33.57
2018-02-17T10:47:36.120Z,36.70
2018-02-17T10:49:38.904Z,34.83
2018-02-17T10:51:41.501Z,38.50
2018-02-17T10:53:44.106Z,38.40
2018-02-17T10:55:46.762Z,35.93
2018-02-17T10:57:50.269Z,35.63
2018-02-17T10:59:52.864Z,30.30
2018-02-17T11:01:55.489Z,35.20
2018-02-17T11:03:58.296Z,32.33
2018-02-17T11:06:02.014Z,34.40
2018-02-17T11:08:04.707Z,31.63
2018-02-17T11:10:07.497Z,36.47
2018-02-17T11:12:10.194Z,29.43
2018-02-17T11:14:13.550Z,32.03
2018-02-17T11:16:16.157Z,30.33
2018-02-17T11:18:18.880Z,28.53
2018-02-17T11:20:21.502Z,26.17
2018-02-17T11:22:24.115Z,29.00
2018-02-17T11:24:26.728Z,29.53
2018-02-17T11:26:30.697Z,31.73
2018-02-17T11:28:34.098Z,25.60
2018-02-17T11:30:36.686Z,27.77
2018-02-17T11:32:39.309Z,27.23
2018-02-17T11:34:42.070Z,25.00
2018-02-17T11:36:44.666Z,25.13
2018-02-17T11:38:47.270Z,25.27
2018-02-17T11:40:51.099Z,26.73
2018-02-17T11:42:53.722Z,27.67
2018-02-17T11:44:56.349Z,30.70
2018-02-17T11:46:59.005Z,30.30
2018-02-17T11:49:01.628Z,51.23
2018-02-17T11:51:04.213Z,58.73
2018-02-17T11:53:06.850Z,113.77
2018-02-17T11:55:09.494Z,146.23
2018-02-17T11:57:12.090Z,51.47
2018-02-17T11:59:15.060Z,44.63
2018-02-17T12:01:17.645Z,27.43
2018-02-17T12:03:20.339Z,27.17
2018-02-17T12:05:22.960Z,27.27
2018-02-17T12:07:26.334Z,30.00
2018-02-17T12:09:28.950Z,23.67
2018-02-17T12:11:31.626Z,23.50
2018-02-17T12:13:34.423Z,22.53
2018-02-17T12:15:37.045Z,25.57
2018-02-17T12:17:39.912Z,26.00
2018-02-17T12:19:42.547Z,23.57
2018-02-17T12:21:45.130Z,18.10
2018-02-17T12:23:47.749Z,17.57
2018-02-17T12:25:50.361Z,24.87
2018-02-17T12:27:53.039Z,17.93
2018-02-17T12:29:55.665Z,20.80
2018-02-17T12:31:58.269Z,16.73
2018-02-17T12:34:01.671Z,20.63
2018-02-17T12:36:04.290Z,20.07
2018-02-17T12:38:06.879Z,16.30
2018-02-17T12:40:09.466Z,16.33
2018-02-17T12:42:12.865Z,15.63
2018-02-17T12:44:16.224Z,15.87
2018-02-17T12:46:18.804Z,13.90
2018-02-17T12:48:21.433Z,16.90
2018-02-17T12:50:24.023Z,15.37
2018-02-17T12:52:26.672Z,18.43
2018-02-17T12:54:30.051Z,20.40
2018-02-17T12:56:33.474Z,16.13
2018-02-17T12:58:36.099Z,18.13
2018-02-17T13:00:38.687Z,15.07
2018-02-17T13:02:41.269Z,15.43
2018-02-17T13:04:44.640Z,18.63
2018-02-17T13:06:47.251Z,15.07
2018-02-17T13:08:52.427Z,14.53
2018-02-17T13:10:55.047Z,17.50
2018-02-17T13:12:58.421Z,15.07
2018-02-17T13:15:01.021Z,13.97
2018-02-17T13:17:04.542Z,15.37
2018-02-17T13:19:07.232Z,15.03
2018-02-17T13:21:09.817Z,15.30
2018-02-17T13:23:12.406Z,14.70
2018-02-17T13:25:15.010Z,14.50
2018-02-17T13:27:18.403Z,17.77
2018-02-17T13:29:21.795Z,18.07
2018-02-17T13:31:25.162Z,17.87
2018-02-17T13:33:27.764Z,18.40
2018-02-17T13:35:31.272Z,16.50
2018-02-17T13:37:33.865Z,15.87
2018-02-17T13:39:36.469Z,15.47
2018-02-17T13:41:39.093Z,15.83
2018-02-17T13:43:41.825Z,15.93
2018-02-17T13:45:44.434Z,13.80
2018-02-17T13:47:47.805Z,11.17
2018-02-17T13:49:50.401Z,12.13
2018-02-17T13:51:53.774Z,15.67
2018-02-17T13:53:56.371Z,16.00
2018-02-17T13:55:59.791Z,14.57
2018-02-17T13:58:02.363Z,14.03
2018-02-17T14:00:04.956Z,12.97
2018-02-17T14:02:07.586Z,12.00
2018-02-17T14:04:10.964Z,16.57
2018-02-17T14:06:13.557Z,16.73
2018-02-17T14:08:16.163Z,11.17
2018-02-17T14:10:18.763Z,9.50
2018-02-17T14:12:21.484Z,10.97
2018-02-17T14:14:24.104Z,10.27
2018-02-17T14:16:26.712Z,11.53
2018-02-17T14:18:30.082Z,17.80
2018-02-17T14:20:32.666Z,16.00
2018-02-17T14:22:35.267Z,22.70
2018-02-17T14:24:38.665Z,11.10
2018-02-17T14:26:41.294Z,13.40
2018-02-17T14:28:43.901Z,12.07
2018-02-17T14:30:47.268Z,10.83
2018-02-17T14:32:49.901Z,10.03
2018-02-17T14:34:53.251Z,10.57
2018-02-17T14:36:55.853Z,11.63
2018-02-17T14:38:58.469Z,11.63
2018-02-17T14:41:01.082Z,12.10
2018-02-17T14:43:04.442Z,11.83
2018-02-17T14:45:07.046Z,12.30
2018-02-17T14:47:10.406Z,12.87
2018-02-17T14:49:13.025Z,12.10
2018-02-17T14:51:16.521Z,13.20
2018-02-17T14:53:19.887Z,15.03
2018-02-17T14:55:22.509Z,13.57
2018-02-17T14:57:25.089Z,17.90
2018-02-17T14:59:27.672Z,17.20
2018-02-17T15:01:30.291Z,15.60
2018-02-17T15:03:32.885Z,13.73
2018-02-17T15:05:36.296Z,15.07
2018-02-17T15:07:38.907Z,14.40
2018-02-17T15:09:41.503Z,18.67
2018-02-17T15:11:44.145Z,15.07
2018-02-17T15:13:46.745Z,13.83
2018-02-17T15:15:49.352Z,14.67
2018-02-17T15:17:52.807Z,13.90
2018-02-17T15:19:55.393Z,13.07
2018-02-17T15:21:57.981Z,14.70
2018-02-17T15:24:05.293Z,14.57
2018-02-17T15:26:08.146Z,18.90
2018-02-17T15:28:11.493Z,13.67
2018-02-17T15:30:14.260Z,12.27
2018-02-17T15:32:16.841Z,14.23
2018-02-17T15:34:19.459Z,11.87
2018-02-17T15:36:22.826Z,12.13
2018-02-17T15:38:26.204Z,12.03
2018-02-17T15:40:28.842Z,10.33
2018-02-17T15:42:31.432Z,8.53
2018-02-17T15:44:34.033Z,8.97
2018-02-17T15:46:37.385Z,9.57
2018-02-17T15:48:40.043Z,9.33
2018-02-17T15:50:43.415Z,9.20
2018-02-17T15:52:46.000Z,6.10
2018-02-17T15:54:48.611Z,7.10
2018-02-17T15:56:51.216Z,6.43
2018-02-17T15:58:54.607Z,6.37
2018-02-17T16:01:01.778Z,5.67
2018-02-17T16:03:04.354Z,4.10
2018-02-17T16:05:06.948Z,7.10
2018-02-17T16:07:09.602Z,5.27
2018-02-17T16:09:12.574Z,4.17
2018-02-17T16:11:15.239Z,5.63
2018-02-17T16:13:17.827Z,5.37
2018-02-17T16:15:21.624Z,5.17
2018-02-17T16:17:24.239Z,5.57
2018-02-17T16:19:26.841Z,6.00
2018-02-17T16:21:30.234Z,7.87
2018-02-17T16:23:33.611Z,7.50
2018-02-17T16:25:36.198Z,8.07
2018-02-17T16:27:39.561Z,5.30
2018-02-17T16:29:42.150Z,8.03
2018-02-17T16:31:44.732Z,7.00
2018-02-17T16:33:48.139Z,9.23
2018-02-17T16:35:51.586Z,10.50
2018-02-17T16:37:54.173Z,14.07
2018-02-17T16:39:56.797Z,19.90
2018-02-17T16:41:59.390Z,11.97
2018-02-17T16:44:02.026Z,18.53
2018-02-17T16:46:05.412Z,13.43
2018-02-17T16:48:09.063Z,21.37
2018-02-17T16:50:11.677Z,19.13
2018-02-17T16:52:14.324Z,20.57
2018-02-17T16:54:16.914Z,15.33
2018-02-17T16:56:19.523Z,16.23
2018-02-17T16:58:22.569Z,14.40
2018-02-17T17:00:25.154Z,15.97
2018-02-17T17:02:27.809Z,12.80
2018-02-17T17:04:30.593Z,13.00
2018-02-17T17:06:33.249Z,13.83
2018-02-17T17:08:35.866Z,14.77
2018-02-17T17:10:39.250Z,13.87
2018-02-17T17:12:42.762Z,17.70
2018-02-17T17:14:45.361Z,15.37
2018-02-17T17:16:47.968Z,18.93
2018-02-17T17:18:50.577Z,15.57
2018-02-17T17:20:53.933Z,23.77
2018-02-17T17:22:56.529Z,18.07
2018-02-17T17:24:59.122Z,16.43
2018-02-17T17:27:02.529Z,16.80
2018-02-17T17:29:05.136Z,17.67
2018-02-17T17:31:07.727Z,19.57
2018-02-17T17:33:10.450Z,20.53
2018-02-17T17:35:13.828Z,19.33
2018-02-17T17:37:16.445Z,18.90
2018-02-17T17:39:19.045Z,22.20
2018-02-17T17:41:21.640Z,27.87
2018-02-17T17:43:25.034Z,28.23
2018-02-17T17:45:28.119Z,29.57
2018-02-17T17:47:30.726Z,34.40
2018-02-17T17:49:33.347Z,30.27
2018-02-17T17:51:38.834Z,37.77
2018-02-17T17:53:41.434Z,21.43
2018-02-17T17:55:44.171Z,30.93
2018-02-17T17:57:52.339Z,24.23
2018-02-17T17:59:55.948Z,23.67
2018-02-17T18:01:59.511Z,28.37
2018-02-17T18:04:04.262Z,40.17
2018-02-17T18:06:07.284Z,48.50
2018-02-17T18:08:11.920Z,29.33
2018-02-17T18:10:14.798Z,25.73
2018-02-17T18:12:18.472Z,31.57
2018-02-17T18:14:21.094Z,26.40
2018-02-17T18:16:23.712Z,26.30
2018-02-17T18:18:26.307Z,34.63
2018-02-17T18:20:29.718Z,32.63
2018-02-17T18:22:33.135Z,28.53
2018-02-17T18:24:35.982Z,27.93
2018-02-17T18:26:39.386Z,35.30
2018-02-17T18:28:41.981Z,49.13
2018-02-17T18:30:44.605Z,33.00
2018-02-17T18:32:47.514Z,30.53
2018-02-17T18:34:54.971Z,26.53
2018-02-17T18:36:58.512Z,29.53
2018-02-17T18:39:01.818Z,27.43
2018-02-17T18:41:04.838Z,29.87
2018-02-17T18:43:07.829Z,21.07
2018-02-17T18:45:10.862Z,31.10
2018-02-17T18:47:15.205Z,23.93
2018-02-17T18:49:18.592Z,32.07
2018-02-17T18:51:21.228Z,23.97
2018-02-17T18:53:24.400Z,30.53
2018-02-17T18:55:27.770Z,39.80
2018-02-17T18:57:30.356Z,45.70
2018-02-17T18:59:33.763Z,67.37
2018-02-17T19:01:37.162Z,31.17
2018-02-17T19:03:39.801Z,24.77
2018-02-17T19:05:42.410Z,26.30
2018-02-17T19:07:45.791Z,24.93
2018-02-17T19:09:49.161Z,27.03
2018-02-17T19:11:51.769Z,44.47
2018-02-17T19:13:57.015Z,27.03
2018-02-17T19:15:59.687Z,23.53
2018-02-17T19:18:02.297Z,27.37
2018-02-17T19:20:04.894Z,23.07
2018-02-17T19:22:07.491Z,20.53
2018-02-17T19:24:10.881Z,21.07
2018-02-17T19:26:14.266Z,21.73
2018-02-17T19:28:16.910Z,19.53
2018-02-17T19:30:19.479Z,21.17
2018-02-17T19:32:22.082Z,19.87
2018-02-17T19:34:25.212Z,19.90
2018-02-17T19:36:27.812Z,21.47
2018-02-17T19:38:30.425Z,21.83
2018-02-17T19:40:33.048Z,21.73
2018-02-17T19:42:35.629Z,23.27
2018-02-17T19:44:43.226Z,22.33
2018-02-17T19:46:45.815Z,23.00
2018-02-17T19:48:48.426Z,25.50
2018-02-17T19:50:51.429Z,26.03
2018-02-17T19:52:54.072Z,21.87
2018-02-17T19:54:57.496Z,22.80
2018-02-17T19:57:00.125Z,21.00
2018-02-17T19:59:02.725Z,23.77
2018-02-17T20:01:06.096Z,23.10
2018-02-17T20:03:08.714Z,23.07
2018-02-17T20:05:13.994Z,24.87
2018-02-17T20:07:16.599Z,21.93
2018-02-17T20:09:20.030Z,25.70
2018-02-17T20:11:22.639Z,26.23
2018-02-17T20:13:25.234Z,27.20
2018-02-17T20:15:27.850Z,31.17
2018-02-17T20:17:30.415Z,28.67
2018-02-17T20:19:33.028Z,27.63
2018-02-17T20:21:35.633Z,32.20
2018-02-17T20:23:38.239Z,26.00
2018-02-17T20:25:40.821Z,33.87
2018-02-17T20:27:43.535Z,32.80
2018-02-17T20:29:49.148Z,35.30
2018-02-17T20:31:51.766Z,30.77
2018-02-17T20:33:54.357Z,34.40
2018-02-17T20:35:57.731Z,38.47
2018-02-17T20:38:00.335Z,32.23
2018-02-17T20:40:03.796Z,34.13
2018-02-17T20:42:08.092Z,39.70
2018-02-17T20:44:12.006Z,41.87
2018-02-17T20:46:14.602Z,40.63
2018-02-17T20:48:17.229Z,52.87
2018-02-17T20:50:19.818Z,90.50
2018-02-17T20:52:22.525Z,34.73
2018-02-17T20:54:25.335Z,33.43
2018-02-17T20:56:27.945Z,42.97
2018-02-17T20:58:30.561Z,50.57
2018-02-17T21:00:33.195Z,56.33
2018-02-17T21:02:35.873Z,64.87
2018-02-17T21:04:38.451Z,47.60
2018-02-17T21:06:41.054Z,34.23
2018-02-17T21:08:43.977Z,31.93
2018-02-17T21:10:46.665Z,36.23
2018-02-17T21:12:49.273Z,38.67
2018-02-17T21:14:51.876Z,39.93
2018-02-17T21:16:55.254Z,44.87
2018-02-17T21:18:58.223Z,39.90
2018-02-17T21:21:00.869Z,53.37
2018-02-17T21:23:03.485Z,44.23
2018-02-17T21:25:09.363Z,35.67
2018-02-17T21:27:12.035Z,32.63
2018-02-17T21:29:15.456Z,33.20
2018-02-17T21:31:19.319Z,33.33
2018-02-17T21:33:22.760Z,32.00
2018-02-17T21:35:26.134Z,36.23
2018-02-17T21:37:28.759Z,35.83
2018-02-17T21:39:31.359Z,36.37
2018-02-17T21:41:34.715Z,35.27
2018-02-17T21:43:37.359Z,36.67
2018-02-17T21:45:39.974Z,36.33
2018-02-17T21:47:42.582Z,37.17
2018-02-17T21:49:45.967Z,38.80
2018-02-17T21:51:49.343Z,42.73
2018-02-17T21:53:51.962Z,36.13
2018-02-17T21:55:54.546Z,35.60
2018-02-17T21:57:57.923Z,37.30
2018-02-17T22:00:00.560Z,33.27
2018-02-17T22:02:03.892Z,35.07
2018-02-17T22:04:06.502Z,36.57
2018-02-17T22:06:09.089Z,36.40
2018-02-17T22:08:11.689Z,37.90
2018-02-17T22:10:15.082Z,37.63
2018-02-17T22:12:18.433Z,34.43
2018-02-17T22:14:21.051Z,36.73
2018-02-17T22:16:24.443Z,32.23
2018-02-17T22:18:27.813Z,35.93
2018-02-17T22:20:30.418Z,34.43
2018-02-17T22:22:33.053Z,30.90
2018-02-17T22:24:35.639Z,47.47
2018-02-17T22:26:38.265Z,35.70
2018-02-17T22:28:40.885Z,36.53
2018-02-17T22:30:43.501Z,33.57
2018-02-17T22:32:46.094Z,35.90
2018-02-17T22:34:48.806Z,36.63
2018-02-17T22:36:51.398Z,37.30
2018-02-17T22:38:58.757Z,35.77
2018-02-17T22:41:02.203Z,37.53
2018-02-17T22:43:04.769Z,36.73
2018-02-17T22:45:08.416Z,39.47
2018-02-17T22:47:11.001Z,36.93
2018-02-17T22:49:13.610Z,36.80
2018-02-17T22:51:16.981Z,38.10
2018-02-17T22:53:19.573Z,38.27
2018-02-17T22:55:22.966Z,40.00
2018-02-17T22:57:26.358Z,40.40
2018-02-17T22:59:29.730Z,39.47
2018-02-17T23:01:32.353Z,40.80
2018-02-17T23:03:34.978Z,42.57
2018-02-17T23:05:37.725Z,39.10
2018-02-17T23:07:40.255Z,40.03
2018-02-17T23:09:43.632Z,43.33
2018-02-17T23:11:46.246Z,43.83
2018-02-17T23:13:48.843Z,41.93
2018-02-17T23:15:51.528Z,45.93
2018-02-17T23:17:54.144Z,39.73
2018-02-17T23:19:57.504Z,42.97
2018-02-17T23:22:00.125Z,40.90
2018-02-17T23:24:02.727Z,43.13
2018-02-17T23:26:05.329Z,46.50
2018-02-17T23:28:07.955Z,44.63
2018-02-17T23:30:10.546Z,44.10
2018-02-17T23:32:13.938Z,42.87
2018-02-17T23:34:16.630Z,42.67
2018-02-17T23:36:19.307Z,43.33
2018-02-17T23:38:21.930Z,45.47
2018-02-17T23:40:25.296Z,44.07
2018-02-17T23:42:28.678Z,48.13
2018-02-17T23:44:31.282Z,54.83
2018-02-17T23:46:34.650Z,45.40
2018-02-17T23:48:37.274Z,50.03
2018-02-17T23:50:39.856Z,51.10
2018-02-17T23:52:42.441Z,52.60
2018-02-17T23:54:45.046Z,41.63
2018-02-17T23:56:47.641Z,48.33
2018-02-17T23:58:50.251Z,43.43
